This is the latest recevied weather packets stored in our database for station/object HG8LXL-2. If no packets are shown the sender has not sent any weather packets the latest 10 day(s).
| Time | Temp. | Humidity | Pressure | Rain* | Wind** | Luminosity | Snow |
|---|---|---|---|---|---|---|---|
| 1777984802 | 35° C | 8% | 1007.9 hPa | - | - | - | - |
| 1777984502 | 34.44° C | 7% | 1008.2 hPa | - | - | - | - |
| 1777984202 | 35° C | 6% | 1008.2 hPa | - | - | - | - |
| 1777983902 | 34.44° C | 8% | 1008.3 hPa | - | - | - | - |
| 1777983602 | 34.44° C | 8% | 1008.3 hPa | - | - | - | - |
| 1777983302 | 33.33° C | 8% | 1008.5 hPa | - | - | - | - |
| 1777983002 | 34.44° C | 8% | 1008.4 hPa | - | - | - | - |
| 1777982702 | 33.33° C | 8% | 1008.5 hPa | - | - | - | - |
| 1777982402 | 33.33° C | 9% | 1008.6 hPa | - | - | - | - |
| 1777982102 | 33.89° C | 8% | 1008.6 hPa | - | - | - | - |
| 1777981802 | 33.89° C | 7% | 1008.6 hPa | - | - | - | - |
| 1777981502 | 33.33° C | 6% | 1008.8 hPa | - | - | - | - |
| 1777981202 | 32.78° C | 8% | 1008.8 hPa | - | - | - | - |
| 1777980902 | 32.78° C | 8% | 1008.9 hPa | - | - | - | - |
| 1777980602 | 33.33° C | 7% | 1008.9 hPa | - | - | - | - |
| 1777980302 | 32.78° C | 7% | 1008.9 hPa | - | - | - | - |
| 1777980002 | 33.89° C | 8% | 1008.9 hPa | - | - | - | - |
| 1777979702 | 33.89° C | 8% | 1008.9 hPa | - | - | - | - |
| 1777979402 | 32.78° C | 8% | 1009.1 hPa | - | - | - | - |
| 1777979102 | 32.78° C | 8% | 1009.2 hPa | - | - | - | - |
| 1777978802 | 33.33° C | 8% | 1009.1 hPa | - | - | - | - |
| 1777978502 | 32.22° C | 7% | 1009.3 hPa | - | - | - | - |
| 1777978202 | 32.22° C | 10% | 1009.4 hPa | - | - | - | - |
| 1777977902 | 32.22° C | 9% | 1009.4 hPa | - | - | - | - |
| 1777977602 | 32.22° C | 9% | 1009.5 hPa | - | - | - | - |
* Rain since midnight (hover to see other rain measurements)
** Current wind speed in m/s (hover to see current wind gust speed)